Time;durP1;ratioP1;P1;durP2;ratioP2;P2;SDS_P1;SDS_P2;PMS_P1;PMS_P2;Temp;Humidity;BMP_temperature;BMP_pressure;BME280_temperature;BME280_humidity;BME280_pressure;Samples;Min_cycle;Max_cycle;Signal;HPM_P1;HPM_P2
2023/12/31 00:01:57;;;;;;;3.97;1.80;;;;;;;;;;4937326;28;20036;-86
2023/12/31 00:04:22;;;;;;;2.58;1.55;;;;;;;;;;4926962;29;20024;-87
2023/12/31 00:06:48;;;;;;;3.33;1.73;;;;;;;;;;4925201;29;20032;-87
2023/12/31 00:09:13;;;;;;;2.75;1.70;;;;;;;;;;4925105;29;20032;-86
2023/12/31 00:11:39;;;;;;;3.20;1.80;;;;;;;;;;4924337;29;20108;-85
2023/12/31 00:14:04;;;;;;;4.70;1.90;;;;;;;;;;4908113;29;20025;-85
2023/12/31 00:16:30;;;;;;;4.00;1.90;;;;;;;;;;4940414;29;20036;-87
2023/12/31 00:18:55;;;;;;;3.55;1.85;;;;;;;;;;4932918;29;20041;-86
2023/12/31 00:21:20;;;;;;;3.22;1.83;;;;;;;;;;4921845;29;20108;-86
2023/12/31 00:23:46;;;;;;;4.20;1.95;;;;;;;;;;4926313;29;20368;-86
2023/12/31 00:26:11;;;;;;;3.28;1.90;;;;;;;;;;4927550;28;20048;-86
2023/12/31 00:28:39;;;;;;;3.60;1.90;;;;;;;;;;4923095;29;20064;-85
2023/12/31 00:31:04;;;;;;;4.80;2.13;;;;;;;;;;4927432;29;20078;-86
2023/12/31 00:33:30;;;;;;;3.83;2.00;;;;;;;;;;4932826;29;20024;-87
2023/12/31 00:35:55;;;;;;;4.93;2.15;;;;;;;;;;4913104;29;20043;-86
2023/12/31 00:38:21;;;;;;;3.55;1.90;;;;;;;;;;4940300;29;20031;-86
2023/12/31 00:40:46;;;;;;;3.45;1.75;;;;;;;;;;4927988;29;20063;-85
2023/12/31 00:43:12;;;;;;;2.88;1.58;;;;;;;;;;4944779;29;20100;-86
2023/12/31 00:45:37;;;;;;;3.50;1.85;;;;;;;;;;4920316;29;20042;-86
2023/12/31 00:48:03;;;;;;;3.33;1.92;;;;;;;;;;4915502;29;20926;-87
2023/12/31 00:50:30;;;;;;;3.15;1.83;;;;;;;;;;4929762;29;20028;-86
2023/12/31 00:52:55;;;;;;;5.13;1.73;;;;;;;;;;4923843;29;20095;-86
2023/12/31 00:55:21;;;;;;;3.00;1.90;;;;;;;;;;4931891;29;20027;-86
2023/12/31 00:57:46;;;;;;;3.35;1.67;;;;;;;;;;4925426;29;20536;-87
2023/12/31 01:00:13;;;;;;;3.53;1.83;;;;;;;;;;4926983;29;20032;-85
2023/12/31 01:02:38;;;;;;;3.55;1.90;;;;;;;;;;4927889;29;20043;-87
2023/12/31 01:05:04;;;;;;;3.40;1.98;;;;;;;;;;4930165;29;20028;-85
2023/12/31 01:07:29;;;;;;;5.03;2.15;;;;;;;;;;4930594;29;20032;-85
2023/12/31 01:09:55;;;;;;;3.75;2.15;;;;;;;;;;4945916;29;20403;-86
2023/12/31 01:12:20;;;;;;;3.33;2.05;;;;;;;;;;4928531;29;20075;-85
2023/12/31 01:14:46;;;;;;;3.83;2.10;;;;;;;;;;4929750;29;20581;-86
2023/12/31 01:17:11;;;;;;;3.60;1.85;;;;;;;;;;4929315;29;20083;-86
2023/12/31 01:19:37;;;;;;;6.38;1.90;;;;;;;;;;4922776;29;20067;-84
2023/12/31 01:22:03;;;;;;;2.83;1.83;;;;;;;;;;4938262;29;20171;-85
2023/12/31 01:24:28;;;;;;;3.08;1.80;;;;;;;;;;4930425;29;20066;-87
2023/12/31 01:26:54;;;;;;;4.63;1.92;;;;;;;;;;4914209;29;20024;-87
2023/12/31 01:29:19;;;;;;;4.75;1.60;;;;;;;;;;4944951;29;20176;-85
2023/12/31 01:31:45;;;;;;;4.28;1.75;;;;;;;;;;4932544;29;20187;-84
2023/12/31 01:34:10;;;;;;;4.00;1.75;;;;;;;;;;4922113;29;20035;-85
2023/12/31 01:36:36;;;;;;;2.90;1.70;;;;;;;;;;4930035;29;20518;-84
2023/12/31 01:39:01;;;;;;;2.42;1.50;;;;;;;;;;4925318;29;20647;-86
2023/12/31 01:41:28;;;;;;;3.58;2.03;;;;;;;;;;4911039;29;20036;-85
2023/12/31 01:44:02;;;;;;;3.47;1.80;;;;;;;;;;4946683;28;20027;-86
2023/12/31 01:46:30;;;;;;;2.35;1.70;;;;;;;;;;4933476;29;20033;-87
2023/12/31 01:48:57;;;;;;;2.90;1.70;;;;;;;;;;4945539;29;20027;-86
2023/12/31 01:51:24;;;;;;;2.50;1.48;;;;;;;;;;4913000;29;20031;-87
2023/12/31 01:53:50;;;;;;;3.03;1.80;;;;;;;;;;4929090;29;20051;-85
2023/12/31 01:56:16;;;;;;;2.35;1.52;;;;;;;;;;4941941;29;20032;-86
2023/12/31 01:58:42;;;;;;;3.83;2.00;;;;;;;;;;4908591;29;20035;-87
2023/12/31 02:01:08;;;;;;;4.10;1.80;;;;;;;;;;4922840;29;20086;-88
2023/12/31 02:03:34;;;;;;;3.42;1.90;;;;;;;;;;4940970;29;20042;-87
2023/12/31 02:06:00;;;;;;;3.35;1.83;;;;;;;;;;4929488;29;20035;-86
2023/12/31 02:08:25;;;;;;;2.72;1.95;;;;;;;;;;4931851;29;20032;-86
2023/12/31 02:10:51;;;;;;;2.85;1.70;;;;;;;;;;4931987;29;20046;-85
2023/12/31 02:13:17;;;;;;;3.95;1.80;;;;;;;;;;4933481;29;20511;-87
2023/12/31 02:15:42;;;;;;;4.15;1.60;;;;;;;;;;4929049;29;20107;-86
2023/12/31 02:18:09;;;;;;;2.85;1.60;;;;;;;;;;4928628;29;20042;-86
2023/12/31 02:20:35;;;;;;;2.72;1.48;;;;;;;;;;4930832;29;20095;-85
2023/12/31 02:23:00;;;;;;;3.45;1.75;;;;;;;;;;4913526;29;20040;-85
2023/12/31 02:25:29;;;;;;;2.95;1.80;;;;;;;;;;4947122;29;20036;-87
2023/12/31 02:27:55;;;;;;;4.47;1.80;;;;;;;;;;4932736;29;20023;-85
2023/12/31 02:30:22;;;;;;;2.78;1.70;;;;;;;;;;4931928;29;20051;-86
2023/12/31 02:32:48;;;;;;;2.38;1.42;;;;;;;;;;4932110;28;20154;-85
2023/12/31 02:35:14;;;;;;;2.70;1.60;;;;;;;;;;4929677;29;20051;-84
2023/12/31 02:37:39;;;;;;;3.50;1.40;;;;;;;;;;4942466;29;20032;-87
2023/12/31 02:40:06;;;;;;;2.58;1.50;;;;;;;;;;4929629;29;20089;-86
2023/12/31 02:42:31;;;;;;;3.10;1.75;;;;;;;;;;4919581;29;20035;-85
2023/12/31 02:44:57;;;;;;;2.45;1.55;;;;;;;;;;4927534;29;20058;-86
2023/12/31 02:47:22;;;;;;;2.53;1.45;;;;;;;;;;4925001;29;20494;-85
2023/12/31 02:49:48;;;;;;;1.98;1.35;;;;;;;;;;4925570;29;20028;-85
2023/12/31 02:52:15;;;;;;;2.70;1.67;;;;;;;;;;4951021;28;20055;-86
2023/12/31 02:54:41;;;;;;;2.42;1.45;;;;;;;;;;4926329;29;20036;-84
2023/12/31 02:57:07;;;;;;;2.50;1.60;;;;;;;;;;4923625;29;20072;-86
2023/12/31 02:59:35;;;;;;;2.42;1.60;;;;;;;;;;4903139;29;20032;-86
2023/12/31 03:02:02;;;;;;;2.17;1.30;;;;;;;;;;4918417;29;20498;-86
2023/12/31 03:04:28;;;;;;;2.35;1.40;;;;;;;;;;4920818;29;20020;-85
2023/12/31 03:06:53;;;;;;;2.53;1.45;;;;;;;;;;4926777;29;20058;-86
2023/12/31 03:09:21;;;;;;;5.15;1.80;;;;;;;;;;4932523;29;20055;-87
2023/12/31 03:11:47;;;;;;;2.70;1.55;;;;;;;;;;4929017;29;20047;-86
2023/12/31 03:14:14;;;;;;;3.28;1.60;;;;;;;;;;4923036;29;20035;-86
2023/12/31 03:16:46;;;;;;;2.17;1.35;;;;;;;;;;4924912;29;20027;-87
2023/12/31 03:19:15;;;;;;;2.53;1.50;;;;;;;;;;4941719;29;20119;-85
2023/12/31 03:21:41;;;;;;;2.85;1.70;;;;;;;;;;4925040;29;20032;-84
2023/12/31 03:24:08;;;;;;;2.85;1.50;;;;;;;;;;4932851;29;20586;-84
2023/12/31 03:26:33;;;;;;;3.42;1.60;;;;;;;;;;4907175;29;20110;-84
2023/12/31 03:28:59;;;;;;;3.10;1.38;;;;;;;;;;4910217;29;20157;-87
2023/12/31 03:31:25;;;;;;;3.63;1.35;;;;;;;;;;4927225;29;20028;-85
2023/12/31 03:33:50;;;;;;;2.35;1.27;;;;;;;;;;4940990;29;20038;-85
2023/12/31 03:36:16;;;;;;;3.10;1.33;;;;;;;;;;4939068;29;20058;-84
2023/12/31 03:38:41;;;;;;;2.55;1.35;;;;;;;;;;4941978;29;20122;-86
2023/12/31 03:41:07;;;;;;;2.75;1.50;;;;;;;;;;4919490;29;20516;-85
2023/12/31 03:43:32;;;;;;;2.33;1.33;;;;;;;;;;4935175;29;20071;-87
2023/12/31 03:45:59;;;;;;;3.75;1.42;;;;;;;;;;4922647;29;20028;-85
2023/12/31 03:48:25;;;;;;;1.88;1.15;;;;;;;;;;4909153;29;20039;-87
2023/12/31 03:50:52;;;;;;;3.05;1.05;;;;;;;;;;4941267;29;20393;-85
2023/12/31 03:53:17;;;;;;;3.08;1.40;;;;;;;;;;4923814;29;20036;-85
2023/12/31 03:55:43;;;;;;;1.35;1.10;;;;;;;;;;4921925;29;20031;-86
2023/12/31 03:58:08;;;;;;;2.20;1.10;;;;;;;;;;4922343;29;20039;-86
2023/12/31 04:00:34;;;;;;;1.77;1.10;;;;;;;;;;4918695;29;20064;-86
2023/12/31 04:03:00;;;;;;;1.48;1.10;;;;;;;;;;4916158;29;20091;-85
2023/12/31 04:05:26;;;;;;;2.13;1.25;;;;;;;;;;4924238;29;20034;-85
2023/12/31 04:07:52;;;;;;;2.40;1.30;;;;;;;;;;4934633;29;20024;-84
2023/12/31 04:10:17;;;;;;;2.17;1.10;;;;;;;;;;4932120;29;20061;-87
2023/12/31 04:12:43;;;;;;;1.33;1.10;;;;;;;;;;4925750;29;20107;-85
2023/12/31 04:15:08;;;;;;;2.15;1.25;;;;;;;;;;4908020;29;20040;-85
2023/12/31 04:17:34;;;;;;;2.00;1.15;;;;;;;;;;4922325;29;20036;-86
2023/12/31 04:20:00;;;;;;;2.67;1.42;;;;;;;;;;4915999;29;20402;-87
2023/12/31 04:22:26;;;;;;;2.67;1.27;;;;;;;;;;4936435;28;20035;-86
2023/12/31 04:24:51;;;;;;;1.63;1.02;;;;;;;;;;4920256;29;20394;-88
2023/12/31 04:27:19;;;;;;;1.52;1.10;;;;;;;;;;4936838;29;20031;-86
2023/12/31 04:29:45;;;;;;;1.73;1.20;;;;;;;;;;4923728;29;20039;-84
2023/12/31 04:32:10;;;;;;;2.30;1.25;;;;;;;;;;4924723;29;20107;-86
2023/12/31 04:34:36;;;;;;;1.77;1.17;;;;;;;;;;4928853;29;20352;-86
2023/12/31 04:37:01;;;;;;;2.50;1.15;;;;;;;;;;4925455;29;20389;-86
2023/12/31 04:39:27;;;;;;;1.83;1.08;;;;;;;;;;4924555;29;20070;-87
2023/12/31 04:41:54;;;;;;;1.50;1.10;;;;;;;;;;4919413;29;20032;-86
2023/12/31 04:44:20;;;;;;;2.40;1.25;;;;;;;;;;4939210;29;20485;-85
2023/12/31 04:46:45;;;;;;;1.75;1.20;;;;;;;;;;4918750;29;20123;-86
2023/12/31 04:49:14;;;;;;;2.53;1.30;;;;;;;;;;4921426;29;20040;-87
2023/12/31 04:51:40;;;;;;;5.45;2.80;;;;;;;;;;4907046;29;20035;-85
2023/12/31 04:54:06;;;;;;;2.67;1.40;;;;;;;;;;4925978;29;20024;-87
2023/12/31 04:56:32;;;;;;;1.90;1.25;;;;;;;;;;4923178;29;20497;-86
2023/12/31 04:58:58;;;;;;;2.33;1.20;;;;;;;;;;4934888;29;20047;-86
2023/12/31 05:01:26;;;;;;;2.83;1.60;;;;;;;;;;4924504;29;20036;-85
2023/12/31 05:03:51;;;;;;;1.90;1.30;;;;;;;;;;4920971;29;20390;-85
2023/12/31 05:06:17;;;;;;;2.45;1.15;;;;;;;;;;4924517;29;20032;-85
2023/12/31 05:08:44;;;;;;;2.38;1.40;;;;;;;;;;4934850;29;20494;-86
2023/12/31 05:11:11;;;;;;;2.05;1.25;;;;;;;;;;4921940;29;20044;-86
2023/12/31 05:13:37;;;;;;;2.45;1.30;;;;;;;;;;4925139;29;20036;-85
2023/12/31 05:16:03;;;;;;;2.53;1.20;;;;;;;;;;4923211;29;20063;-86
2023/12/31 05:18:29;;;;;;;3.03;1.40;;;;;;;;;;4938911;29;20074;-86
2023/12/31 05:20:54;;;;;;;1.85;1.20;;;;;;;;;;4925620;29;20462;-85
2023/12/31 05:23:21;;;;;;;1.75;1.25;;;;;;;;;;4935275;29;20090;-86
2023/12/31 05:25:46;;;;;;;2.20;1.50;;;;;;;;;;4921780;29;20035;-84
2023/12/31 05:28:12;;;;;;;2.28;1.40;;;;;;;;;;4932076;28;20047;-85
2023/12/31 05:30:41;;;;;;;2.75;1.40;;;;;;;;;;4940189;29;20391;-84
2023/12/31 05:33:07;;;;;;;2.08;1.30;;;;;;;;;;4929880;29;20023;-87
2023/12/31 05:35:32;;;;;;;4.35;1.40;;;;;;;;;;4929750;29;20036;-86
2023/12/31 05:37:58;;;;;;;2.17;1.42;;;;;;;;;;4928683;29;20046;-86
2023/12/31 05:40:23;;;;;;;2.75;1.30;;;;;;;;;;4926305;29;20063;-86
2023/12/31 05:42:49;;;;;;;2.60;1.60;;;;;;;;;;4938827;29;20495;-86
2023/12/31 05:45:14;;;;;;;2.72;1.48;;;;;;;;;;4920236;29;20036;-85
2023/12/31 05:47:40;;;;;;;2.15;1.20;;;;;;;;;;4924124;29;20047;-86
2023/12/31 05:50:05;;;;;;;2.30;1.40;;;;;;;;;;4924100;29;20633;-85
2023/12/31 05:52:31;;;;;;;2.17;1.30;;;;;;;;;;4926950;29;20040;-86
2023/12/31 05:54:57;;;;;;;1.83;1.20;;;;;;;;;;4943296;29;20048;-85
2023/12/31 05:57:22;;;;;;;2.15;1.30;;;;;;;;;;4928265;29;20487;-85
2023/12/31 05:59:47;;;;;;;2.03;1.10;;;;;;;;;;4927437;28;20087;-84
2023/12/31 06:02:13;;;;;;;2.47;0.98;;;;;;;;;;4926777;29;20039;-85
2023/12/31 06:04:38;;;;;;;2.42;1.20;;;;;;;;;;4921404;29;20043;-87
2023/12/31 06:07:04;;;;;;;1.95;1.17;;;;;;;;;;4922915;29;20579;-86
2023/12/31 06:09:30;;;;;;;1.67;1.08;;;;;;;;;;4926257;29;20053;-86
2023/12/31 06:11:55;;;;;;;1.65;1.00;;;;;;;;;;4925811;29;20040;-86
2023/12/31 06:14:21;;;;;;;3.03;1.25;;;;;;;;;;4927165;29;20078;-85
2023/12/31 06:16:46;;;;;;;1.30;1.00;;;;;;;;;;4918089;29;20043;-86
2023/12/31 06:19:13;;;;;;;1.35;1.00;;;;;;;;;;4925649;29;20582;-86
2023/12/31 06:21:38;;;;;;;2.08;1.15;;;;;;;;;;4923970;29;20074;-85
2023/12/31 06:24:04;;;;;;;2.95;1.30;;;;;;;;;;4920692;29;20112;-86
2023/12/31 06:26:30;;;;;;;4.10;1.70;;;;;;;;;;4935945;29;20048;-85
2023/12/31 06:28:55;;;;;;;2.80;1.20;;;;;;;;;;4924255;29;20090;-84
2023/12/31 06:31:21;;;;;;;2.50;1.40;;;;;;;;;;4924426;29;20051;-85
2023/12/31 06:33:46;;;;;;;2.17;1.30;;;;;;;;;;4925641;29;20431;-86
2023/12/31 06:36:11;;;;;;;2.17;1.30;;;;;;;;;;4941676;29;20032;-88
2023/12/31 06:38:37;;;;;;;1.55;1.10;;;;;;;;;;4927998;29;20035;-84
2023/12/31 06:41:07;;;;;;;1.42;1.00;;;;;;;;;;4926016;29;20032;-86
2023/12/31 06:43:34;;;;;;;2.15;1.20;;;;;;;;;;4921448;29;20479;-87
2023/12/31 06:45:59;;;;;;;1.70;1.20;;;;;;;;;;4922393;29;20132;-87
2023/12/31 06:48:25;;;;;;;2.70;1.40;;;;;;;;;;4926143;29;20071;-88
2023/12/31 06:50:51;;;;;;;2.05;1.30;;;;;;;;;;4928308;29;20391;-87
2023/12/31 06:53:16;;;;;;;1.90;1.30;;;;;;;;;;4924682;29;20503;-86
2023/12/31 06:55:42;;;;;;;1.90;1.35;;;;;;;;;;4940977;28;20092;-85
2023/12/31 06:58:07;;;;;;;3.00;1.42;;;;;;;;;;4929712;29;20028;-86
2023/12/31 07:00:33;;;;;;;2.75;1.45;;;;;;;;;;4924458;29;20051;-86
2023/12/31 07:02:59;;;;;;;2.25;1.50;;;;;;;;;;4924311;29;20111;-86
2023/12/31 07:05:24;;;;;;;3.75;1.20;;;;;;;;;;4922995;29;20056;-86
2023/12/31 07:07:50;;;;;;;1.75;1.30;;;;;;;;;;4919299;29;20070;-86
2023/12/31 07:10:15;;;;;;;1.73;1.20;;;;;;;;;;4907026;29;20043;-86
2023/12/31 07:12:41;;;;;;;2.38;1.27;;;;;;;;;;4922094;29;20040;-87
2023/12/31 07:15:09;;;;;;;1.98;1.20;;;;;;;;;;4922956;29;20028;-83
2023/12/31 07:17:36;;;;;;;5.38;1.42;;;;;;;;;;4925353;29;20407;-86
2023/12/31 07:20:04;;;;;;;2.78;1.30;;;;;;;;;;4941126;29;20051;-88
2023/12/31 07:22:29;;;;;;;2.22;1.25;;;;;;;;;;4919008;29;20564;-88
2023/12/31 07:24:55;;;;;;;3.10;1.60;;;;;;;;;;4920598;29;20036;-87
2023/12/31 07:27:20;;;;;;;3.85;1.42;;;;;;;;;;4914565;29;20039;-86
2023/12/31 07:29:46;;;;;;;2.20;1.30;;;;;;;;;;4916826;29;20044;-86
2023/12/31 07:32:12;;;;;;;1.70;1.20;;;;;;;;;;4926270;29;20490;-88
2023/12/31 07:34:37;;;;;;;2.38;1.40;;;;;;;;;;4921970;29;20037;-86
2023/12/31 07:37:03;;;;;;;3.17;1.38;;;;;;;;;;4940046;29;20114;-85
2023/12/31 07:39:28;;;;;;;6.65;1.65;;;;;;;;;;4925887;29;20074;-87
2023/12/31 07:41:54;;;;;;;2.58;1.40;;;;;;;;;;4925676;29;20043;-87
2023/12/31 07:44:20;;;;;;;2.63;1.48;;;;;;;;;;4922419;29;20075;-86
2023/12/31 07:46:46;;;;;;;4.55;2.00;;;;;;;;;;4917741;29;20491;-85
2023/12/31 07:49:11;;;;;;;2.47;1.42;;;;;;;;;;4931306;29;20064;-85
2023/12/31 07:51:37;;;;;;;3.05;1.60;;;;;;;;;;4929925;29;20071;-85
2023/12/31 07:54:02;;;;;;;3.35;1.50;;;;;;;;;;4943347;29;20562;-84
2023/12/31 07:56:28;;;;;;;3.05;1.38;;;;;;;;;;4928512;29;20050;-84
2023/12/31 07:58:53;;;;;;;2.20;1.38;;;;;;;;;;4943794;29;20032;-84
2023/12/31 08:01:19;;;;;;;2.92;1.33;;;;;;;;;;4927911;29;20044;-84
2023/12/31 08:03:45;;;;;;;5.30;1.60;;;;;;;;;;4920729;29;20043;-84
2023/12/31 08:06:10;;;;;;;4.15;2.13;;;;;;;;;;4926550;29;20036;-85
2023/12/31 08:08:36;;;;;;;3.60;1.77;;;;;;;;;;4920644;29;20043;-85
2023/12/31 08:11:01;;;;;;;3.10;1.60;;;;;;;;;;4921255;29;20559;-85
2023/12/31 08:13:27;;;;;;;3.30;1.75;;;;;;;;;;4930272;28;20540;-87
2023/12/31 08:15:53;;;;;;;6.40;2.47;;;;;;;;;;4925875;29;20044;-86
2023/12/31 08:18:20;;;;;;;7.95;2.70;;;;;;;;;;4926934;29;20043;-86
2023/12/31 08:20:46;;;;;;;3.78;1.80;;;;;;;;;;4929930;29;20079;-85
2023/12/31 08:23:11;;;;;;;4.80;2.00;;;;;;;;;;4928972;29;20039;-86
2023/12/31 08:25:37;;;;;;;2.65;1.50;;;;;;;;;;4923720;29;20055;-84
2023/12/31 08:28:02;;;;;;;2.10;1.33;;;;;;;;;;4935119;29;20075;-84
2023/12/31 08:30:28;;;;;;;2.30;1.23;;;;;;;;;;4916555;29;20497;-83
2023/12/31 08:32:53;;;;;;;2.17;1.20;;;;;;;;;;4920242;29;20522;-86
2023/12/31 08:35:19;;;;;;;2.40;1.15;;;;;;;;;;4931263;29;20040;-85
2023/12/31 08:37:44;;;;;;;2.35;1.38;;;;;;;;;;4921618;29;20031;-84
2023/12/31 08:40:10;;;;;;;4.65;1.58;;;;;;;;;;4927872;29;20062;-85
2023/12/31 08:42:36;;;;;;;4.95;1.33;;;;;;;;;;4930309;29;20071;-85
2023/12/31 08:45:06;;;;;;;2.95;1.90;;;;;;;;;;4922932;29;20082;-83
2023/12/31 08:47:32;;;;;;;3.42;1.58;;;;;;;;;;4921647;29;20087;-84
2023/12/31 08:49:58;;;;;;;2.95;1.30;;;;;;;;;;4902599;29;20028;-84
2023/12/31 08:52:23;;;;;;;2.05;1.10;;;;;;;;;;4917261;29;20060;-84
2023/12/31 08:54:49;;;;;;;2.03;1.20;;;;;;;;;;4929912;29;20028;-86
2023/12/31 08:57:14;;;;;;;1.35;1.00;;;;;;;;;;4931614;29;20043;-85
2023/12/31 08:59:40;;;;;;;2.08;1.20;;;;;;;;;;4929402;29;20044;-84
2023/12/31 09:02:05;;;;;;;2.17;1.20;;;;;;;;;;4929760;29;20115;-84
2023/12/31 09:04:34;;;;;;;2.08;1.10;;;;;;;;;;4941604;29;20115;-86
2023/12/31 09:07:00;;;;;;;1.83;1.10;;;;;;;;;;4941450;29;20036;-86
2023/12/31 09:09:26;;;;;;;2.55;1.42;;;;;;;;;;4926710;29;20056;-85
2023/12/31 09:11:52;;;;;;;1.67;1.10;;;;;;;;;;4929655;29;20083;-86
2023/12/31 09:14:17;;;;;;;2.55;1.27;;;;;;;;;;4934033;29;20091;-84
2023/12/31 09:16:43;;;;;;;2.17;1.33;;;;;;;;;;4936741;29;20028;-85
2023/12/31 09:19:08;;;;;;;1.92;1.20;;;;;;;;;;4929563;29;20506;-82
2023/12/31 09:21:34;;;;;;;3.15;1.45;;;;;;;;;;4928853;29;20067;-82
2023/12/31 09:23:59;;;;;;;1.80;1.20;;;;;;;;;;4937500;29;20030;-86
2023/12/31 09:26:25;;;;;;;3.00;1.33;;;;;;;;;;4931719;29;20099;-82
2023/12/31 09:28:50;;;;;;;1.42;0.90;;;;;;;;;;4925821;29;20031;-84
2023/12/31 09:31:16;;;;;;;2.63;1.30;;;;;;;;;;4924146;29;20051;-84
2023/12/31 09:33:41;;;;;;;2.97;1.60;;;;;;;;;;4922542;29;20551;-86
2023/12/31 09:36:07;;;;;;;2.00;1.30;;;;;;;;;;4932745;29;20037;-85
2023/12/31 09:38:33;;;;;;;4.07;1.42;;;;;;;;;;4934754;29;20044;-85
2023/12/31 09:40:58;;;;;;;2.72;1.42;;;;;;;;;;4931629;29;20432;-86
2023/12/31 09:43:25;;;;;;;2.33;1.38;;;;;;;;;;4930996;29;20032;-84
2023/12/31 09:45:51;;;;;;;2.40;1.42;;;;;;;;;;4932881;29;20529;-84
2023/12/31 09:48:17;;;;;;;2.20;1.25;;;;;;;;;;4927542;29;20495;-85
2023/12/31 09:50:43;;;;;;;2.53;1.20;;;;;;;;;;4924952;29;20087;-86
2023/12/31 09:53:10;;;;;;;3.10;1.63;;;;;;;;;;4924650;29;20039;-87
2023/12/31 09:55:37;;;;;;;3.03;1.30;;;;;;;;;;4927876;29;20044;-86
2023/12/31 09:58:04;;;;;;;1.52;1.10;;;;;;;;;;4929604;29;20039;-86
2023/12/31 10:00:30;;;;;;;2.10;1.10;;;;;;;;;;4926594;29;20084;-81
2023/12/31 10:02:56;;;;;;;1.80;1.13;;;;;;;;;;4928805;29;20040;-82
2023/12/31 10:05:23;;;;;;;1.08;0.90;;;;;;;;;;4933075;29;20030;-82
2023/12/31 10:07:49;;;;;;;2.00;1.08;;;;;;;;;;4947317;29;20123;-84
2023/12/31 10:10:16;;;;;;;2.75;1.10;;;;;;;;;;4932064;29;20063;-83
2023/12/31 10:12:41;;;;;;;3.35;1.23;;;;;;;;;;4925337;29;20107;-86
2023/12/31 10:15:08;;;;;;;1.77;1.10;;;;;;;;;;4929084;29;20063;-83
2023/12/31 10:17:37;;;;;;;2.90;1.50;;;;;;;;;;4929506;29;20068;-83
2023/12/31 10:20:04;;;;;;;4.97;1.60;;;;;;;;;;4936765;29;20027;-85
2023/12/31 10:22:31;;;;;;;1.90;1.10;;;;;;;;;;4932164;29;20039;-84
2023/12/31 10:25:16;;;;;;;7.05;2.15;;;;;;;;;;4946480;29;20032;-81
2023/12/31 10:27:48;;;;;;;2.78;1.67;;;;;;;;;;4916955;29;20098;-83
2023/12/31 10:30:14;;;;;;;2.67;1.55;;;;;;;;;;4922736;29;20102;-82
2023/12/31 10:32:40;;;;;;;2.55;1.40;;;;;;;;;;4926750;29;20048;-84
2023/12/31 10:35:06;;;;;;;2.88;1.50;;;;;;;;;;4924200;29;20047;-85
2023/12/31 10:37:34;;;;;;;1.98;1.40;;;;;;;;;;4923343;29;20033;-85
2023/12/31 10:40:15;;;;;;;2.22;1.27;;;;;;;;;;4943475;29;20043;-84
2023/12/31 10:42:46;;;;;;;3.00;1.70;;;;;;;;;;4932690;29;20044;-82
2023/12/31 10:45:11;;;;;;;4.07;1.40;;;;;;;;;;4929999;29;20078;-82
2023/12/31 10:47:38;;;;;;;1.92;1.25;;;;;;;;;;4933049;29;20036;-83
2023/12/31 10:50:06;;;;;;;2.10;1.20;;;;;;;;;;4925466;29;20035;-84
2023/12/31 10:52:34;;;;;;;3.15;1.30;;;;;;;;;;4927982;29;20043;-82
2023/12/31 10:55:00;;;;;;;3.72;1.20;;;;;;;;;;4921092;29;20040;-83
2023/12/31 10:57:26;;;;;;;3.33;1.20;;;;;;;;;;4925821;29;20067;-83
2023/12/31 10:59:53;;;;;;;2.58;1.30;;;;;;;;;;4929688;29;20044;-81
2023/12/31 11:02:20;;;;;;;3.70;1.30;;;;;;;;;;4932069;29;20056;-83
2023/12/31 11:04:49;;;;;;;2.50;1.40;;;;;;;;;;4925877;29;20094;-83
2023/12/31 11:07:17;;;;;;;1.98;1.20;;;;;;;;;;4943877;29;20036;-86
2023/12/31 11:09:43;;;;;;;2.00;1.40;;;;;;;;;;4929365;29;20035;-85
2023/12/31 11:12:10;;;;;;;3.33;1.30;;;;;;;;;;4925441;29;20195;-84
2023/12/31 11:14:38;;;;;;;2.17;1.25;;;;;;;;;;4922562;29;20071;-85
2023/12/31 11:17:25;;;;;;;4.35;2.20;;;;;;;;;;4921991;29;20036;-86
2023/12/31 11:20:09;;;;;;;5.70;3.22;;;;;;;;;;4926680;29;20048;-86
2023/12/31 11:22:55;;;;;;;4.05;2.00;;;;;;;;;;4928422;29;20154;-88
2023/12/31 11:25:21;;;;;;;2.97;1.65;;;;;;;;;;4943663;29;20120;-85
2023/12/31 11:27:54;;;;;;;2.25;1.48;;;;;;;;;;4936036;29;20044;-86
2023/12/31 11:30:45;;;;;;;3.38;2.00;;;;;;;;;;4948050;29;20518;-87
2023/12/31 11:33:11;;;;;;;6.20;2.33;;;;;;;;;;4929061;29;20417;-87
2023/12/31 11:35:44;;;;;;;4.32;2.30;;;;;;;;;;4924675;29;20048;-85
2023/12/31 11:38:10;;;;;;;2.85;2.00;;;;;;;;;;4925960;29;20043;-83
2023/12/31 11:40:36;;;;;;;5.53;3.20;;;;;;;;;;4944307;29;20417;-85
2023/12/31 11:43:20;;;;;;;4.57;1.70;;;;;;;;;;4934634;29;20051;-86
2023/12/31 11:45:49;;;;;;;3.00;1.60;;;;;;;;;;4931425;29;20095;-87
2023/12/31 11:48:21;;;;;;;3.38;2.00;;;;;;;;;;4936000;29;20067;-85
2023/12/31 11:50:56;;;;;;;3.65;2.10;;;;;;;;;;4934357;29;20032;-85
2023/12/31 11:53:22;;;;;;;4.10;1.90;;;;;;;;;;4919645;29;20078;-86
2023/12/31 11:56:14;;;;;;;3.70;1.90;;;;;;;;;;4919079;29;20060;-87
2023/12/31 11:58:42;;;;;;;3.45;2.15;;;;;;;;;;4920090;29;20052;-85
2023/12/31 12:01:09;;;;;;;4.90;2.75;;;;;;;;;;4927226;29;20063;-86
2023/12/31 12:03:34;;;;;;;4.55;2.00;;;;;;;;;;4927633;29;20035;-86
2023/12/31 12:06:00;;;;;;;3.13;1.70;;;;;;;;;;4913691;29;20042;-86
2023/12/31 12:08:26;;;;;;;3.95;1.80;;;;;;;;;;4929270;29;20448;-86
2023/12/31 12:10:52;;;;;;;4.22;2.53;;;;;;;;;;4925681;29;20060;-83
2023/12/31 12:13:17;;;;;;;6.28;2.80;;;;;;;;;;4927543;29;20513;-86
2023/12/31 12:15:43;;;;;;;4.70;2.13;;;;;;;;;;4921099;29;20040;-85
2023/12/31 12:18:21;;;;;;;8.88;5.25;;;;;;;;;;4926573;29;20047;-86
2023/12/31 12:20:47;;;;;;;19.42;10.07;;;;;;;;;;4927992;29;20122;-87
2023/12/31 12:23:19;;;;;;;12.75;6.72;;;;;;;;;;4931449;29;20042;-87
2023/12/31 12:25:46;;;;;;;4.10;2.28;;;;;;;;;;4930106;29;20032;-86
2023/12/31 12:28:13;;;;;;;3.88;2.17;;;;;;;;;;4941013;28;20035;-85
2023/12/31 12:30:41;;;;;;;6.07;2.35;;;;;;;;;;4933563;29;20035;-86
2023/12/31 12:33:07;;;;;;;3.85;2.58;;;;;;;;;;4922732;29;20036;-81
2023/12/31 12:35:35;;;;;;;3.72;2.20;;;;;;;;;;4933966;29;20044;-83
2023/12/31 12:38:01;;;;;;;4.13;2.25;;;;;;;;;;4917642;29;20032;-85
2023/12/31 12:40:27;;;;;;;4.25;2.05;;;;;;;;;;4919761;29;20086;-85
2023/12/31 12:42:53;;;;;;;3.45;2.10;;;;;;;;;;4930434;29;20380;-83
2023/12/31 12:45:19;;;;;;;3.22;2.20;;;;;;;;;;4928685;29;20059;-85
2023/12/31 12:47:45;;;;;;;5.03;2.78;;;;;;;;;;4927077;29;20082;-84
2023/12/31 12:50:10;;;;;;;5.65;2.42;;;;;;;;;;4931446;29;20098;-84
2023/12/31 12:52:36;;;;;;;4.13;2.30;;;;;;;;;;4931213;29;20116;-86
2023/12/31 12:55:02;;;;;;;8.20;2.83;;;;;;;;;;4922536;29;20368;-86
2023/12/31 12:57:28;;;;;;;6.20;3.50;;;;;;;;;;4918532;29;20422;-88
2023/12/31 12:59:53;;;;;;;12.32;3.40;;;;;;;;;;4923802;29;20032;-86
2023/12/31 13:02:19;;;;;;;4.30;2.45;;;;;;;;;;4924532;29;20036;-84
2023/12/31 13:04:48;;;;;;;6.65;3.70;;;;;;;;;;4928746;29;20039;-85
2023/12/31 13:07:14;;;;;;;28.63;11.65;;;;;;;;;;4930138;29;20035;-87
2023/12/31 13:09:40;;;;;;;23.35;10.00;;;;;;;;;;4924632;29;20036;-88
2023/12/31 13:12:06;;;;;;;16.20;7.10;;;;;;;;;;4924680;29;20039;-86
2023/12/31 13:14:34;;;;;;;8.50;3.13;;;;;;;;;;4923074;29;20040;-85
2023/12/31 13:16:59;;;;;;;5.75;3.50;;;;;;;;;;4924049;29;20067;-88
2023/12/31 13:19:25;;;;;;;10.20;4.47;;;;;;;;;;4922258;29;20075;-85
2023/12/31 13:21:50;;;;;;;7.93;3.60;;;;;;;;;;4917792;29;20055;-87
2023/12/31 13:24:16;;;;;;;3.55;1.90;;;;;;;;;;4918127;29;20040;-87
2023/12/31 13:26:42;;;;;;;5.28;2.50;;;;;;;;;;4927322;29;20092;-87
2023/12/31 13:29:07;;;;;;;5.40;3.10;;;;;;;;;;4909326;29;20043;-86
2023/12/31 13:31:33;;;;;;;4.75;2.80;;;;;;;;;;4924576;29;20043;-86
2023/12/31 13:33:59;;;;;;;5.82;3.60;;;;;;;;;;4930404;29;20131;-86
2023/12/31 13:36:24;;;;;;;8.40;3.58;;;;;;;;;;4922328;29;20083;-83
2023/12/31 13:38:50;;;;;;;6.15;3.33;;;;;;;;;;4918384;29;20126;-87
2023/12/31 13:41:15;;;;;;;7.63;3.08;;;;;;;;;;4925164;28;20052;-84
2023/12/31 13:43:41;;;;;;;7.05;3.47;;;;;;;;;;4928233;29;20046;-85
2023/12/31 13:46:06;;;;;;;7.78;4.03;;;;;;;;;;4926802;29;20031;-85
2023/12/31 13:48:32;;;;;;;7.65;3.83;;;;;;;;;;4925227;29;20036;-86
2023/12/31 13:50:58;;;;;;;5.50;2.97;;;;;;;;;;4944495;29;20055;-86
2023/12/31 13:53:23;;;;;;;4.88;2.80;;;;;;;;;;4929407;29;20059;-84
2023/12/31 13:55:49;;;;;;;3.97;2.47;;;;;;;;;;4928626;29;20706;-86
2023/12/31 13:58:14;;;;;;;10.95;2.45;;;;;;;;;;4924819;29;20498;-87
2023/12/31 14:00:50;;;;;;;8.13;3.97;;;;;;;;;;4920277;29;20545;-86
2023/12/31 14:03:16;;;;;;;6.68;2.78;;;;;;;;;;4921082;29;20039;-85
2023/12/31 14:05:42;;;;;;;4.00;2.40;;;;;;;;;;4928001;28;20027;-86
2023/12/31 14:08:08;;;;;;;3.08;1.83;;;;;;;;;;4930711;29;20493;-87
2023/12/31 14:10:34;;;;;;;3.53;2.05;;;;;;;;;;4927450;29;20048;-84
2023/12/31 14:13:00;;;;;;;5.20;3.00;;;;;;;;;;4927250;29;20040;-85
2023/12/31 14:15:31;;;;;;;4.82;2.40;;;;;;;;;;4928438;29;20383;-85
2023/12/31 14:17:56;;;;;;;7.93;3.50;;;;;;;;;;4917915;29;20040;-86
2023/12/31 14:20:22;;;;;;;21.02;9.95;;;;;;;;;;4917498;29;20058;-83
2023/12/31 14:22:47;;;;;;;7.47;3.50;;;;;;;;;;4919833;29;20526;-86
2023/12/31 14:25:13;;;;;;;7.38;3.55;;;;;;;;;;4923283;29;20039;-86
2023/12/31 14:27:38;;;;;;;7.82;3.45;;;;;;;;;;4928021;29;20131;-85
2023/12/31 14:30:06;;;;;;;8.88;3.15;;;;;;;;;;4930097;29;20040;-87
2023/12/31 14:32:32;;;;;;;9.35;3.75;;;;;;;;;;4945913;29;20130;-85
2023/12/31 14:34:57;;;;;;;6.57;3.17;;;;;;;;;;4931004;29;20111;-85
2023/12/31 14:37:22;;;;;;;8.05;3.50;;;;;;;;;;4924408;29;20450;-85
2023/12/31 14:39:49;;;;;;;6.20;3.50;;;;;;;;;;4917494;29;20044;-84